sensor_id;sensor_type;location;lat;lon;timestamp;temperature;humidity
19803;DHT22;66074;50.764;6.090;2023-08-06T00:00:05;16.90;98.20
19803;DHT22;66074;50.764;6.090;2023-08-06T00:02:30;16.90;98.10
19803;DHT22;66074;50.764;6.090;2023-08-06T00:04:56;16.80;98.20
19803;DHT22;66074;50.764;6.090;2023-08-06T00:07:22;16.80;98.10
19803;DHT22;66074;50.764;6.090;2023-08-06T00:09:48;16.80;98.20
19803;DHT22;66074;50.764;6.090;2023-08-06T00:12:13;16.80;98.20
19803;DHT22;66074;50.764;6.090;2023-08-06T00:14:39;16.80;98.30
19803;DHT22;66074;50.764;6.090;2023-08-06T00:17:04;16.80;98.10
19803;DHT22;66074;50.764;6.090;2023-08-06T00:19:31;16.80;98.30
19803;DHT22;66074;50.764;6.090;2023-08-06T00:21:57;16.80;98.60
19803;DHT22;66074;50.764;6.090;2023-08-06T00:24:22;16.70;98.60
19803;DHT22;66074;50.764;6.090;2023-08-06T00:26:48;16.60;99.00
19803;DHT22;66074;50.764;6.090;2023-08-06T00:29:14;16.60;98.60
19803;DHT22;66074;50.764;6.090;2023-08-06T00:31:39;16.60;98.50
19803;DHT22;66074;50.764;6.090;2023-08-06T00:34:05;16.60;98.60
19803;DHT22;66074;50.764;6.090;2023-08-06T00:36:31;16.50;98.80
19803;DHT22;66074;50.764;6.090;2023-08-06T00:38:56;16.60;99.00
19803;DHT22;66074;50.764;6.090;2023-08-06T00:41:22;16.50;98.70
19803;DHT22;66074;50.764;6.090;2023-08-06T00:43:47;16.50;98.60
19803;DHT22;66074;50.764;6.090;2023-08-06T00:46:13;16.60;98.90
19803;DHT22;66074;50.764;6.090;2023-08-06T00:48:40;16.50;99.10
19803;DHT22;66074;50.764;6.090;2023-08-06T00:51:06;16.50;99.00
19803;DHT22;66074;50.764;6.090;2023-08-06T00:53:32;16.40;99.00
19803;DHT22;66074;50.764;6.090;2023-08-06T00:55:58;16.40;99.10
19803;DHT22;66074;50.764;6.090;2023-08-06T00:58:24;16.40;99.40
19803;DHT22;66074;50.764;6.090;2023-08-06T01:00:50;16.40;99.20
19803;DHT22;66074;50.764;6.090;2023-08-06T01:03:16;16.40;99.20
19803;DHT22;66074;50.764;6.090;2023-08-06T01:05:41;16.40;99.30
19803;DHT22;66074;50.764;6.090;2023-08-06T01:13:48;16.30;99.80
19803;DHT22;66074;50.764;6.090;2023-08-06T01:16:19;16.30;99.70
19803;DHT22;66074;50.764;6.090;2023-08-06T01:18:47;16.30;99.70
19803;DHT22;66074;50.764;6.090;2023-08-06T01:21:15;16.40;99.80
19803;DHT22;66074;50.764;6.090;2023-08-06T01:23:42;16.40;99.50
19803;DHT22;66074;50.764;6.090;2023-08-06T01:31:27;16.60;99.40
19803;DHT22;66074;50.764;6.090;2023-08-06T01:33:56;16.60;99.10
19803;DHT22;66074;50.764;6.090;2023-08-06T01:36:23;16.60;99.40
19803;DHT22;66074;50.764;6.090;2023-08-06T01:38:53;16.60;99.30
19803;DHT22;66074;50.764;6.090;2023-08-06T01:41:19;16.70;99.30
19803;DHT22;66074;50.764;6.090;2023-08-06T01:43:45;16.70;99.30
19803;DHT22;66074;50.764;6.090;2023-08-06T01:46:11;16.70;99.20
19803;DHT22;66074;50.764;6.090;2023-08-06T01:48:36;16.70;99.20
19803;DHT22;66074;50.764;6.090;2023-08-06T01:51:04;16.70;99.20
19803;DHT22;66074;50.764;6.090;2023-08-06T01:53:31;16.70;99.10
19803;DHT22;66074;50.764;6.090;2023-08-06T01:55:57;16.70;99.20
19803;DHT22;66074;50.764;6.090;2023-08-06T01:58:23;16.70;99.10
19803;DHT22;66074;50.764;6.090;2023-08-06T02:00:48;16.80;99.20
19803;DHT22;66074;50.764;6.090;2023-08-06T02:03:14;16.80;99.30
19803;DHT22;66074;50.764;6.090;2023-08-06T02:05:40;16.80;99.40
19803;DHT22;66074;50.764;6.090;2023-08-06T02:08:05;16.80;99.20
19803;DHT22;66074;50.764;6.090;2023-08-06T02:10:31;16.80;99.20
19803;DHT22;66074;50.764;6.090;2023-08-06T02:12:57;16.80;99.20
19803;DHT22;66074;50.764;6.090;2023-08-06T02:15:22;16.80;99.20
19803;DHT22;66074;50.764;6.090;2023-08-06T02:17:48;16.80;99.20
19803;DHT22;66074;50.764;6.090;2023-08-06T02:20:13;16.80;99.30
19803;DHT22;66074;50.764;6.090;2023-08-06T02:22:39;16.80;99.30
19803;DHT22;66074;50.764;6.090;2023-08-06T02:25:05;16.80;99.30
19803;DHT22;66074;50.764;6.090;2023-08-06T02:27:30;16.80;99.50
19803;DHT22;66074;50.764;6.090;2023-08-06T02:29:56;16.80;99.30
19803;DHT22;66074;50.764;6.090;2023-08-06T02:32:22;16.80;99.60
19803;DHT22;66074;50.764;6.090;2023-08-06T02:34:47;16.80;99.60
19803;DHT22;66074;50.764;6.090;2023-08-06T02:37:13;16.70;99.90
19803;DHT22;66074;50.764;6.090;2023-08-06T02:39:38;16.70;99.60
19803;DHT22;66074;50.764;6.090;2023-08-06T02:42:08;16.70;99.70
19803;DHT22;66074;50.764;6.090;2023-08-06T02:44:35;16.70;99.70
19803;DHT22;66074;50.764;6.090;2023-08-06T02:47:01;16.70;99.90
19803;DHT22;66074;50.764;6.090;2023-08-06T02:49:27;16.70;99.90
19803;DHT22;66074;50.764;6.090;2023-08-06T02:51:52;16.70;99.90
19803;DHT22;66074;50.764;6.090;2023-08-06T02:54:18;16.70;99.90
19803;DHT22;66074;50.764;6.090;2023-08-06T02:56:45;16.70;99.90
19803;DHT22;66074;50.764;6.090;2023-08-06T02:59:12;16.70;99.90
19803;DHT22;66074;50.764;6.090;2023-08-06T03:01:38;16.70;99.90
19803;DHT22;66074;50.764;6.090;2023-08-06T03:04:04;16.70;99.90
19803;DHT22;66074;50.764;6.090;2023-08-06T03:06:29;16.80;99.90
19803;DHT22;66074;50.764;6.090;2023-08-06T03:08:55;16.80;99.90
19803;DHT22;66074;50.764;6.090;2023-08-06T03:11:21;16.80;99.90
19803;DHT22;66074;50.764;6.090;2023-08-06T03:13:47;16.70;99.90
19803;DHT22;66074;50.764;6.090;2023-08-06T03:16:13;16.80;99.90
19803;DHT22;66074;50.764;6.090;2023-08-06T03:18:38;16.80;99.90
19803;DHT22;66074;50.764;6.090;2023-08-06T03:21:04;16.80;99.90
19803;DHT22;66074;50.764;6.090;2023-08-06T03:23:30;16.80;99.90
19803;DHT22;66074;50.764;6.090;2023-08-06T03:25:55;16.80;99.90
19803;DHT22;66074;50.764;6.090;2023-08-06T03:28:21;16.80;99.90
19803;DHT22;66074;50.764;6.090;2023-08-06T03:30:47;16.70;99.90
19803;DHT22;66074;50.764;6.090;2023-08-06T03:33:13;16.70;99.90
19803;DHT22;66074;50.764;6.090;2023-08-06T03:35:39;16.70;99.90
19803;DHT22;66074;50.764;6.090;2023-08-06T03:38:05;16.70;99.90
19803;DHT22;66074;50.764;6.090;2023-08-06T03:40:31;16.70;99.90
19803;DHT22;66074;50.764;6.090;2023-08-06T03:42:56;16.70;99.90
19803;DHT22;66074;50.764;6.090;2023-08-06T03:45:22;16.70;99.90
19803;DHT22;66074;50.764;6.090;2023-08-06T03:47:48;16.70;99.90
19803;DHT22;66074;50.764;6.090;2023-08-06T03:50:13;16.70;99.90
19803;DHT22;66074;50.764;6.090;2023-08-06T03:52:39;16.70;99.90
19803;DHT22;66074;50.764;6.090;2023-08-06T03:55:05;16.70;99.90
19803;DHT22;66074;50.764;6.090;2023-08-06T03:57:30;16.70;99.90
19803;DHT22;66074;50.764;6.090;2023-08-06T03:59:56;16.70;99.90
19803;DHT22;66074;50.764;6.090;2023-08-06T04:02:22;16.70;99.90
19803;DHT22;66074;50.764;6.090;2023-08-06T04:04:48;16.70;99.90
19803;DHT22;66074;50.764;6.090;2023-08-06T04:07:14;16.70;99.90
19803;DHT22;66074;50.764;6.090;2023-08-06T04:10:00;16.70;99.90
19803;DHT22;66074;50.764;6.090;2023-08-06T04:12:26;16.70;99.90
19803;DHT22;66074;50.764;6.090;2023-08-06T04:14:52;16.70;99.90
19803;DHT22;66074;50.764;6.090;2023-08-06T04:17:19;16.70;99.90
19803;DHT22;66074;50.764;6.090;2023-08-06T04:19:47;16.70;99.90
19803;DHT22;66074;50.764;6.090;2023-08-06T04:22:13;16.80;99.90
19803;DHT22;66074;50.764;6.090;2023-08-06T04:24:39;16.70;99.90
19803;DHT22;66074;50.764;6.090;2023-08-06T04:27:05;16.70;99.90
19803;DHT22;66074;50.764;6.090;2023-08-06T04:29:30;16.60;99.90
19803;DHT22;66074;50.764;6.090;2023-08-06T04:31:56;16.60;99.90
19803;DHT22;66074;50.764;6.090;2023-08-06T04:34:22;16.60;99.90
19803;DHT22;66074;50.764;6.090;2023-08-06T04:36:48;16.60;99.90
19803;DHT22;66074;50.764;6.090;2023-08-06T04:39:13;16.50;99.90
19803;DHT22;66074;50.764;6.090;2023-08-06T04:41:39;16.50;99.90
19803;DHT22;66074;50.764;6.090;2023-08-06T04:44:05;16.50;99.90
19803;DHT22;66074;50.764;6.090;2023-08-06T04:46:30;16.50;99.90
19803;DHT22;66074;50.764;6.090;2023-08-06T04:48:56;16.40;99.90
19803;DHT22;66074;50.764;6.090;2023-08-06T04:51:21;16.40;99.90
19803;DHT22;66074;50.764;6.090;2023-08-06T04:53:47;16.40;99.90
19803;DHT22;66074;50.764;6.090;2023-08-06T04:56:12;16.40;99.90
19803;DHT22;66074;50.764;6.090;2023-08-06T04:58:38;16.40;99.90
19803;DHT22;66074;50.764;6.090;2023-08-06T05:01:04;16.40;99.90
19803;DHT22;66074;50.764;6.090;2023-08-06T05:03:29;16.50;99.90
19803;DHT22;66074;50.764;6.090;2023-08-06T05:05:55;16.50;99.90
19803;DHT22;66074;50.764;6.090;2023-08-06T05:08:21;16.50;99.90
19803;DHT22;66074;50.764;6.090;2023-08-06T05:10:46;16.50;99.90
19803;DHT22;66074;50.764;6.090;2023-08-06T05:13:12;16.50;99.90
19803;DHT22;66074;50.764;6.090;2023-08-06T05:15:38;16.50;99.90
19803;DHT22;66074;50.764;6.090;2023-08-06T05:18:07;16.60;99.90
19803;DHT22;66074;50.764;6.090;2023-08-06T05:20:36;16.60;99.90
19803;DHT22;66074;50.764;6.090;2023-08-06T05:23:02;16.60;99.90
19803;DHT22;66074;50.764;6.090;2023-08-06T05:25:28;16.70;99.90
19803;DHT22;66074;50.764;6.090;2023-08-06T05:27:53;16.70;99.90
19803;DHT22;66074;50.764;6.090;2023-08-06T05:30:19;16.70;99.90
19803;DHT22;66074;50.764;6.090;2023-08-06T05:32:44;16.70;99.90
19803;DHT22;66074;50.764;6.090;2023-08-06T05:35:10;16.70;99.90
19803;DHT22;66074;50.764;6.090;2023-08-06T05:37:36;16.70;99.90
19803;DHT22;66074;50.764;6.090;2023-08-06T05:40:01;16.60;99.90
19803;DHT22;66074;50.764;6.090;2023-08-06T05:42:28;16.70;99.90
19803;DHT22;66074;50.764;6.090;2023-08-06T05:44:54;16.80;99.90
19803;DHT22;66074;50.764;6.090;2023-08-06T05:47:19;16.80;99.90
19803;DHT22;66074;50.764;6.090;2023-08-06T05:49:45;16.80;99.90
19803;DHT22;66074;50.764;6.090;2023-08-06T05:52:11;16.80;99.90
19803;DHT22;66074;50.764;6.090;2023-08-06T05:54:36;16.80;99.90
19803;DHT22;66074;50.764;6.090;2023-08-06T05:57:02;16.80;99.90
19803;DHT22;66074;50.764;6.090;2023-08-06T05:59:28;16.70;99.90
19803;DHT22;66074;50.764;6.090;2023-08-06T06:01:53;16.70;99.90
19803;DHT22;66074;50.764;6.090;2023-08-06T06:04:19;16.80;99.90
19803;DHT22;66074;50.764;6.090;2023-08-06T06:06:45;16.80;99.90
19803;DHT22;66074;50.764;6.090;2023-08-06T06:09:10;16.80;99.90
19803;DHT22;66074;50.764;6.090;2023-08-06T06:11:36;16.80;99.90
19803;DHT22;66074;50.764;6.090;2023-08-06T06:14:01;16.80;99.90
19803;DHT22;66074;50.764;6.090;2023-08-06T06:16:27;16.70;99.90
19803;DHT22;66074;50.764;6.090;2023-08-06T06:18:52;16.80;99.90
19803;DHT22;66074;50.764;6.090;2023-08-06T06:21:20;16.70;99.90
19803;DHT22;66074;50.764;6.090;2023-08-06T06:23:45;16.80;99.90
19803;DHT22;66074;50.764;6.090;2023-08-06T06:26:13;16.80;99.90
19803;DHT22;66074;50.764;6.090;2023-08-06T06:28:38;16.80;99.90
19803;DHT22;66074;50.764;6.090;2023-08-06T06:31:04;16.80;99.90
19803;DHT22;66074;50.764;6.090;2023-08-06T06:33:30;16.90;99.90
19803;DHT22;66074;50.764;6.090;2023-08-06T06:35:55;16.90;99.90
19803;DHT22;66074;50.764;6.090;2023-08-06T06:38:21;16.90;99.90
19803;DHT22;66074;50.764;6.090;2023-08-06T06:40:58;16.90;99.90
19803;DHT22;66074;50.764;6.090;2023-08-06T06:43:24;16.90;99.90
19803;DHT22;66074;50.764;6.090;2023-08-06T06:45:55;16.90;99.90
19803;DHT22;66074;50.764;6.090;2023-08-06T06:48:21;16.90;99.90
19803;DHT22;66074;50.764;6.090;2023-08-06T06:50:47;16.90;99.90
19803;DHT22;66074;50.764;6.090;2023-08-06T06:53:14;16.90;99.90
19803;DHT22;66074;50.764;6.090;2023-08-06T06:55:39;16.90;99.90
19803;DHT22;66074;50.764;6.090;2023-08-06T06:58:05;16.90;99.90
19803;DHT22;66074;50.764;6.090;2023-08-06T07:00:30;16.90;99.90
19803;DHT22;66074;50.764;6.090;2023-08-06T07:02:56;16.90;99.90
19803;DHT22;66074;50.764;6.090;2023-08-06T07:05:22;16.90;99.90
19803;DHT22;66074;50.764;6.090;2023-08-06T07:07:47;17.00;99.90
19803;DHT22;66074;50.764;6.090;2023-08-06T07:10:13;17.00;99.90
19803;DHT22;66074;50.764;6.090;2023-08-06T07:12:39;17.10;99.90
19803;DHT22;66074;50.764;6.090;2023-08-06T07:15:06;17.20;99.90
19803;DHT22;66074;50.764;6.090;2023-08-06T07:17:32;17.20;99.90
19803;DHT22;66074;50.764;6.090;2023-08-06T07:19:57;17.10;99.90
19803;DHT22;66074;50.764;6.090;2023-08-06T07:22:23;17.10;99.90
19803;DHT22;66074;50.764;6.090;2023-08-06T07:24:49;17.00;99.90
19803;DHT22;66074;50.764;6.090;2023-08-06T07:27:14;17.00;99.90
19803;DHT22;66074;50.764;6.090;2023-08-06T07:29:40;16.90;99.90
19803;DHT22;66074;50.764;6.090;2023-08-06T07:32:07;16.90;99.90
19803;DHT22;66074;50.764;6.090;2023-08-06T07:34:32;16.90;99.90
19803;DHT22;66074;50.764;6.090;2023-08-06T07:36:58;16.90;99.90
19803;DHT22;66074;50.764;6.090;2023-08-06T07:39:24;16.90;99.90
19803;DHT22;66074;50.764;6.090;2023-08-06T07:41:50;16.90;99.90
19803;DHT22;66074;50.764;6.090;2023-08-06T07:44:15;16.80;99.90
19803;DHT22;66074;50.764;6.090;2023-08-06T07:46:41;16.80;99.90
19803;DHT22;66074;50.764;6.090;2023-08-06T07:49:07;16.70;99.90
19803;DHT22;66074;50.764;6.090;2023-08-06T07:51:32;16.60;99.90
19803;DHT22;66074;50.764;6.090;2023-08-06T07:53:58;16.60;99.90
19803;DHT22;66074;50.764;6.090;2023-08-06T07:56:24;16.50;99.90
19803;DHT22;66074;50.764;6.090;2023-08-06T07:58:49;16.50;99.90
19803;DHT22;66074;50.764;6.090;2023-08-06T08:01:15;16.40;99.90
19803;DHT22;66074;50.764;6.090;2023-08-06T08:03:40;16.30;99.90
19803;DHT22;66074;50.764;6.090;2023-08-06T08:06:06;16.30;99.90
19803;DHT22;66074;50.764;6.090;2023-08-06T08:08:31;16.30;99.90
19803;DHT22;66074;50.764;6.090;2023-08-06T08:10:57;16.20;99.90
19803;DHT22;66074;50.764;6.090;2023-08-06T08:13:24;16.20;99.90
19803;DHT22;66074;50.764;6.090;2023-08-06T08:15:50;16.10;99.90
19803;DHT22;66074;50.764;6.090;2023-08-06T08:18:15;16.00;99.90
19803;DHT22;66074;50.764;6.090;2023-08-06T08:20:41;16.00;99.90
19803;DHT22;66074;50.764;6.090;2023-08-06T08:23:06;16.00;99.90
19803;DHT22;66074;50.764;6.090;2023-08-06T08:25:32;15.90;99.90
19803;DHT22;66074;50.764;6.090;2023-08-06T08:27:59;15.90;99.90
19803;DHT22;66074;50.764;6.090;2023-08-06T08:30:25;15.90;99.90
19803;DHT22;66074;50.764;6.090;2023-08-06T08:32:50;15.80;99.90
19803;DHT22;66074;50.764;6.090;2023-08-06T08:35:16;15.80;99.90
19803;DHT22;66074;50.764;6.090;2023-08-06T08:37:43;15.80;99.90
19803;DHT22;66074;50.764;6.090;2023-08-06T08:40:09;15.80;99.90
19803;DHT22;66074;50.764;6.090;2023-08-06T08:42:36;15.80;99.90
19803;DHT22;66074;50.764;6.090;2023-08-06T08:45:04;15.90;99.90
19803;DHT22;66074;50.764;6.090;2023-08-06T08:47:30;15.90;99.90
19803;DHT22;66074;50.764;6.090;2023-08-06T08:49:57;15.90;99.90
19803;DHT22;66074;50.764;6.090;2023-08-06T08:52:24;15.90;99.90
19803;DHT22;66074;50.764;6.090;2023-08-06T08:54:51;15.90;99.90
19803;DHT22;66074;50.764;6.090;2023-08-06T08:57:18;15.80;99.90
19803;DHT22;66074;50.764;6.090;2023-08-06T08:59:44;15.90;99.90
19803;DHT22;66074;50.764;6.090;2023-08-06T09:02:14;15.90;99.90
19803;DHT22;66074;50.764;6.090;2023-08-06T09:04:41;15.90;99.90
19803;DHT22;66074;50.764;6.090;2023-08-06T09:07:09;15.90;99.90
19803;DHT22;66074;50.764;6.090;2023-08-06T09:09:35;15.90;99.90
19803;DHT22;66074;50.764;6.090;2023-08-06T09:12:11;15.90;99.90
19803;DHT22;66074;50.764;6.090;2023-08-06T09:14:37;16.00;99.90
19803;DHT22;66074;50.764;6.090;2023-08-06T09:17:04;16.00;99.90
19803;DHT22;66074;50.764;6.090;2023-08-06T09:19:31;16.00;99.90
19803;DHT22;66074;50.764;6.090;2023-08-06T09:21:57;16.10;99.90
19803;DHT22;66074;50.764;6.090;2023-08-06T09:24:23;16.10;99.90
19803;DHT22;66074;50.764;6.090;2023-08-06T09:26:49;16.20;99.90
19803;DHT22;66074;50.764;6.090;2023-08-06T09:29:14;16.20;99.90
19803;DHT22;66074;50.764;6.090;2023-08-06T09:31:47;16.30;99.90
19803;DHT22;66074;50.764;6.090;2023-08-06T09:34:17;16.40;99.90
19803;DHT22;66074;50.764;6.090;2023-08-06T09:36:47;16.40;99.90
19803;DHT22;66074;50.764;6.090;2023-08-06T09:39:17;16.20;99.90
19803;DHT22;66074;50.764;6.090;2023-08-06T09:41:44;16.30;99.90
19803;DHT22;66074;50.764;6.090;2023-08-06T09:44:19;16.30;99.90
19803;DHT22;66074;50.764;6.090;2023-08-06T09:47:00;16.20;99.90
19803;DHT22;66074;50.764;6.090;2023-08-06T09:51:58;16.40;99.90
19803;DHT22;66074;50.764;6.090;2023-08-06T09:54:26;16.50;99.90
19803;DHT22;66074;50.764;6.090;2023-08-06T09:56:56;16.60;99.90
19803;DHT22;66074;50.764;6.090;2023-08-06T09:59:23;16.70;99.90
19803;DHT22;66074;50.764;6.090;2023-08-06T10:01:49;16.70;99.90
19803;DHT22;66074;50.764;6.090;2023-08-06T10:04:15;16.60;99.90
19803;DHT22;66074;50.764;6.090;2023-08-06T10:06:42;16.60;99.90
19803;DHT22;66074;50.764;6.090;2023-08-06T10:09:09;16.60;99.90
19803;DHT22;66074;50.764;6.090;2023-08-06T10:11:36;16.50;99.90
19803;DHT22;66074;50.764;6.090;2023-08-06T10:14:08;16.50;99.90
19803;DHT22;66074;50.764;6.090;2023-08-06T10:16:36;16.50;99.90
19803;DHT22;66074;50.764;6.090;2023-08-06T10:19:03;16.50;99.90
19803;DHT22;66074;50.764;6.090;2023-08-06T10:21:31;16.50;99.90
19803;DHT22;66074;50.764;6.090;2023-08-06T10:23:57;16.50;99.90
19803;DHT22;66074;50.764;6.090;2023-08-06T10:26:29;16.60;99.90
19803;DHT22;66074;50.764;6.090;2023-08-06T10:28:55;16.60;99.90
19803;DHT22;66074;50.764;6.090;2023-08-06T10:31:54;16.50;99.90
19803;DHT22;66074;50.764;6.090;2023-08-06T10:34:20;16.50;99.90
19803;DHT22;66074;50.764;6.090;2023-08-06T10:36:46;16.60;99.90
19803;DHT22;66074;50.764;6.090;2023-08-06T10:39:15;16.50;99.90
19803;DHT22;66074;50.764;6.090;2023-08-06T10:41:42;16.60;99.90
19803;DHT22;66074;50.764;6.090;2023-08-06T10:44:11;16.70;99.90
19803;DHT22;66074;50.764;6.090;2023-08-06T10:46:38;16.60;99.90
19803;DHT22;66074;50.764;6.090;2023-08-06T10:49:04;16.60;99.90
19803;DHT22;66074;50.764;6.090;2023-08-06T10:51:30;16.60;99.90
19803;DHT22;66074;50.764;6.090;2023-08-06T10:53:56;16.60;99.90
19803;DHT22;66074;50.764;6.090;2023-08-06T10:56:25;16.70;99.90
19803;DHT22;66074;50.764;6.090;2023-08-06T10:58:53;16.80;99.90
19803;DHT22;66074;50.764;6.090;2023-08-06T11:01:19;17.00;99.90
19803;DHT22;66074;50.764;6.090;2023-08-06T11:03:47;17.10;99.90
19803;DHT22;66074;50.764;6.090;2023-08-06T11:06:18;17.10;99.90
19803;DHT22;66074;50.764;6.090;2023-08-06T11:08:52;17.10;99.90
19803;DHT22;66074;50.764;6.090;2023-08-06T11:11:19;17.10;99.90
19803;DHT22;66074;50.764;6.090;2023-08-06T11:13:50;17.20;99.90
19803;DHT22;66074;50.764;6.090;2023-08-06T11:16:21;17.20;99.90
19803;DHT22;66074;50.764;6.090;2023-08-06T11:18:48;17.30;99.90
19803;DHT22;66074;50.764;6.090;2023-08-06T11:21:14;17.20;99.90
19803;DHT22;66074;50.764;6.090;2023-08-06T11:23:43;17.20;99.90
19803;DHT22;66074;50.764;6.090;2023-08-06T11:26:09;17.10;99.90
19803;DHT22;66074;50.764;6.090;2023-08-06T11:28:35;17.10;99.90
19803;DHT22;66074;50.764;6.090;2023-08-06T11:31:00;17.00;99.90
19803;DHT22;66074;50.764;6.090;2023-08-06T11:33:28;16.90;99.90
19803;DHT22;66074;50.764;6.090;2023-08-06T11:35:57;16.90;99.90
19803;DHT22;66074;50.764;6.090;2023-08-06T11:38:30;16.90;99.90
19803;DHT22;66074;50.764;6.090;2023-08-06T11:40:56;16.80;99.90
19803;DHT22;66074;50.764;6.090;2023-08-06T11:43:22;16.80;99.90
19803;DHT22;66074;50.764;6.090;2023-08-06T11:45:51;16.70;99.90
19803;DHT22;66074;50.764;6.090;2023-08-06T11:48:19;16.70;99.90
19803;DHT22;66074;50.764;6.090;2023-08-06T11:50:45;16.60;99.90
19803;DHT22;66074;50.764;6.090;2023-08-06T11:53:14;16.50;99.90
19803;DHT22;66074;50.764;6.090;2023-08-06T11:55:40;16.40;99.90
19803;DHT22;66074;50.764;6.090;2023-08-06T11:58:06;16.30;99.90
19803;DHT22;66074;50.764;6.090;2023-08-06T12:00:32;16.30;99.90
19803;DHT22;66074;50.764;6.090;2023-08-06T12:02:58;16.20;99.90
19803;DHT22;66074;50.764;6.090;2023-08-06T12:05:33;16.20;99.90
19803;DHT22;66074;50.764;6.090;2023-08-06T12:08:01;16.20;99.90
19803;DHT22;66074;50.764;6.090;2023-08-06T12:10:28;16.10;99.90
19803;DHT22;66074;50.764;6.090;2023-08-06T12:12:55;16.10;99.90
19803;DHT22;66074;50.764;6.090;2023-08-06T12:15:21;16.10;99.90
19803;DHT22;66074;50.764;6.090;2023-08-06T12:17:47;16.00;99.90
19803;DHT22;66074;50.764;6.090;2023-08-06T12:20:13;15.90;99.90
19803;DHT22;66074;50.764;6.090;2023-08-06T12:22:39;15.90;99.90
19803;DHT22;66074;50.764;6.090;2023-08-06T12:25:11;15.90;99.90
19803;DHT22;66074;50.764;6.090;2023-08-06T12:27:43;16.00;99.90
19803;DHT22;66074;50.764;6.090;2023-08-06T12:30:10;16.10;99.90
19803;DHT22;66074;50.764;6.090;2023-08-06T12:32:37;16.10;99.90
19803;DHT22;66074;50.764;6.090;2023-08-06T12:35:03;16.10;99.90
19803;DHT22;66074;50.764;6.090;2023-08-06T12:37:29;16.20;99.90
19803;DHT22;66074;50.764;6.090;2023-08-06T12:39:54;16.20;99.90
19803;DHT22;66074;50.764;6.090;2023-08-06T12:42:20;16.20;99.90
19803;DHT22;66074;50.764;6.090;2023-08-06T12:44:47;16.20;99.90
19803;DHT22;66074;50.764;6.090;2023-08-06T12:47:13;16.20;99.90
19803;DHT22;66074;50.764;6.090;2023-08-06T12:49:39;16.20;99.90
19803;DHT22;66074;50.764;6.090;2023-08-06T12:52:05;16.30;99.90
19803;DHT22;66074;50.764;6.090;2023-08-06T12:54:33;16.30;99.90
19803;DHT22;66074;50.764;6.090;2023-08-06T12:57:04;16.30;99.90
19803;DHT22;66074;50.764;6.090;2023-08-06T12:59:31;16.30;99.90
19803;DHT22;66074;50.764;6.090;2023-08-06T13:01:56;16.30;99.90
19803;DHT22;66074;50.764;6.090;2023-08-06T13:04:22;16.40;99.90
19803;DHT22;66074;50.764;6.090;2023-08-06T13:06:48;16.40;99.90
19803;DHT22;66074;50.764;6.090;2023-08-06T13:09:13;16.30;99.90
19803;DHT22;66074;50.764;6.090;2023-08-06T13:11:42;16.30;99.90
19803;DHT22;66074;50.764;6.090;2023-08-06T13:14:11;16.20;99.90
19803;DHT22;66074;50.764;6.090;2023-08-06T13:16:39;16.30;99.90
19803;DHT22;66074;50.764;6.090;2023-08-06T13:19:06;16.40;99.90
19803;DHT22;66074;50.764;6.090;2023-08-06T13:22:01;16.50;99.90
19803;DHT22;66074;50.764;6.090;2023-08-06T13:24:28;16.50;99.90
19803;DHT22;66074;50.764;6.090;2023-08-06T13:26:54;16.50;99.90
19803;DHT22;66074;50.764;6.090;2023-08-06T13:29:20;16.50;99.90
19803;DHT22;66074;50.764;6.090;2023-08-06T13:31:47;16.40;99.90
19803;DHT22;66074;50.764;6.090;2023-08-06T13:34:17;16.40;99.90
19803;DHT22;66074;50.764;6.090;2023-08-06T13:37:00;16.40;99.90
19803;DHT22;66074;50.764;6.090;2023-08-06T13:39:28;16.40;99.90
19803;DHT22;66074;50.764;6.090;2023-08-06T13:41:54;16.30;99.90
19803;DHT22;66074;50.764;6.090;2023-08-06T13:44:21;16.30;99.90
19803;DHT22;66074;50.764;6.090;2023-08-06T13:46:47;16.30;99.90
19803;DHT22;66074;50.764;6.090;2023-08-06T13:49:13;16.20;99.90
19803;DHT22;66074;50.764;6.090;2023-08-06T13:51:38;16.10;99.90
19803;DHT22;66074;50.764;6.090;2023-08-06T13:54:04;16.00;99.90
19803;DHT22;66074;50.764;6.090;2023-08-06T13:56:30;15.90;99.90
19803;DHT22;66074;50.764;6.090;2023-08-06T13:58:55;15.90;99.90
19803;DHT22;66074;50.764;6.090;2023-08-06T14:01:21;15.90;99.90
19803;DHT22;66074;50.764;6.090;2023-08-06T14:03:47;15.90;99.90
19803;DHT22;66074;50.764;6.090;2023-08-06T14:06:13;15.90;99.90
19803;DHT22;66074;50.764;6.090;2023-08-06T14:08:41;16.00;99.90
19803;DHT22;66074;50.764;6.090;2023-08-06T14:11:07;16.00;99.90
19803;DHT22;66074;50.764;6.090;2023-08-06T14:13:32;16.00;99.90
19803;DHT22;66074;50.764;6.090;2023-08-06T14:15:58;16.00;99.90
19803;DHT22;66074;50.764;6.090;2023-08-06T14:18:23;16.00;99.90
19803;DHT22;66074;50.764;6.090;2023-08-06T14:20:49;16.00;99.90
19803;DHT22;66074;50.764;6.090;2023-08-06T14:23:15;15.90;99.90
19803;DHT22;66074;50.764;6.090;2023-08-06T14:25:40;16.00;99.90
19803;DHT22;66074;50.764;6.090;2023-08-06T14:28:06;16.00;99.90
19803;DHT22;66074;50.764;6.090;2023-08-06T14:30:32;15.90;99.90
19803;DHT22;66074;50.764;6.090;2023-08-06T14:32:59;15.70;99.90
19803;DHT22;66074;50.764;6.090;2023-08-06T14:35:26;15.80;99.90
19803;DHT22;66074;50.764;6.090;2023-08-06T14:37:51;15.90;99.90
19803;DHT22;66074;50.764;6.090;2023-08-06T14:40:17;15.90;99.90
19803;DHT22;66074;50.764;6.090;2023-08-06T14:42:43;15.90;99.90
19803;DHT22;66074;50.764;6.090;2023-08-06T14:45:09;16.00;99.90
19803;DHT22;66074;50.764;6.090;2023-08-06T14:47:35;16.10;99.90
19803;DHT22;66074;50.764;6.090;2023-08-06T14:50:01;16.10;99.90
19803;DHT22;66074;50.764;6.090;2023-08-06T14:52:26;16.10;99.90
19803;DHT22;66074;50.764;6.090;2023-08-06T14:54:52;16.10;99.90
19803;DHT22;66074;50.764;6.090;2023-08-06T14:57:20;16.10;99.90
19803;DHT22;66074;50.764;6.090;2023-08-06T14:59:47;16.10;99.90
19803;DHT22;66074;50.764;6.090;2023-08-06T15:02:12;16.10;99.90
19803;DHT22;66074;50.764;6.090;2023-08-06T15:04:38;16.10;99.90
19803;DHT22;66074;50.764;6.090;2023-08-06T15:07:04;16.10;99.90
19803;DHT22;66074;50.764;6.090;2023-08-06T15:09:30;16.10;99.90
19803;DHT22;66074;50.764;6.090;2023-08-06T15:11:55;16.00;99.90
19803;DHT22;66074;50.764;6.090;2023-08-06T15:14:21;16.00;99.90
19803;DHT22;66074;50.764;6.090;2023-08-06T15:16:47;16.00;99.90
19803;DHT22;66074;50.764;6.090;2023-08-06T15:19:12;16.00;99.90
19803;DHT22;66074;50.764;6.090;2023-08-06T15:21:38;16.00;99.90
19803;DHT22;66074;50.764;6.090;2023-08-06T15:24:04;15.90;99.90
19803;DHT22;66074;50.764;6.090;2023-08-06T15:26:29;15.90;99.90
19803;DHT22;66074;50.764;6.090;2023-08-06T15:28:55;15.90;99.90
19803;DHT22;66074;50.764;6.090;2023-08-06T15:31:22;15.90;99.90
19803;DHT22;66074;50.764;6.090;2023-08-06T15:33:48;15.90;99.90
19803;DHT22;66074;50.764;6.090;2023-08-06T15:36:14;15.90;99.90
19803;DHT22;66074;50.764;6.090;2023-08-06T15:38:39;15.90;99.90